createdAt,value
2017-10-28T00:00:59.902Z,52.47
2017-10-28T00:02:09.222Z,52.57
2017-10-28T00:03:18.530Z,52.76
2017-10-28T00:04:27.573Z,52.67
2017-10-28T00:05:37.046Z,52.47
2017-10-28T00:06:45.738Z,52.67
2017-10-28T00:07:55.047Z,52.47
2017-10-28T00:09:04.481Z,52.47
2017-10-28T00:10:13.551Z,52.47
2017-10-28T00:11:23.532Z,52.57
2017-10-28T00:12:32.201Z,52.47
2017-10-28T00:13:41.177Z,52.37
2017-10-28T00:14:50.503Z,52.57
2017-10-28T00:15:59.825Z,52.47
2017-10-28T00:17:09.150Z,52.47
2017-10-28T00:18:18.810Z,52.47
2017-10-28T00:19:28.130Z,52.86
2017-10-28T00:20:38.088Z,52.47
2017-10-28T00:21:46.747Z,52.57
2017-10-28T00:22:55.717Z,52.37
2017-10-28T00:24:04.737Z,52.57
2017-10-28T00:25:14.181Z,52.76
2017-10-28T00:26:22.845Z,52.47
2017-10-28T00:27:31.856Z,52.57
2017-10-28T00:28:40.865Z,52.47
2017-10-28T00:29:50.173Z,52.47
2017-10-28T00:30:59.245Z,52.57
2017-10-28T00:32:08.213Z,52.76
2017-10-28T00:33:17.863Z,53.05
2017-10-28T00:34:26.530Z,52.86
2017-10-28T00:35:35.212Z,52.76
2017-10-28T00:36:43.851Z,52.95
2017-10-28T00:37:52.512Z,52.86
2017-10-28T00:39:01.910Z,52.86
2017-10-28T00:40:11.563Z,52.67
2017-10-28T00:41:20.540Z,52.76
2017-10-28T00:42:29.226Z,52.86
2017-10-28T00:43:38.209Z,52.86
2017-10-28T00:44:47.558Z,52.86
2017-10-28T00:45:56.552Z,52.95
2017-10-28T00:47:05.608Z,52.86
2017-10-28T00:48:14.942Z,52.95
2017-10-28T00:49:24.278Z,52.95
2017-10-28T00:50:32.948Z,52.67
2017-10-28T00:51:41.969Z,52.95
2017-10-28T00:52:50.970Z,52.95
2017-10-28T00:53:59.750Z,52.86
2017-10-28T00:55:09.406Z,52.37
2017-10-28T00:56:19.044Z,52.95
2017-10-28T00:57:28.701Z,52.28
2017-10-28T00:58:37.679Z,52.95
2017-10-28T00:59:46.356Z,52.95
2017-10-28T01:00:55.025Z,52.86
2017-10-28T01:02:04.385Z,52.86
2017-10-28T01:03:13.367Z,53.05
2017-10-28T01:04:23.029Z,52.86
2017-10-28T01:05:32.356Z,52.95
2017-10-28T01:06:41.345Z,53.05
2017-10-28T01:07:50.342Z,53.05
2017-10-28T01:08:59.017Z,52.95
2017-10-28T01:10:08.665Z,52.95
2017-10-28T01:11:17.653Z,52.95
2017-10-28T01:12:26.312Z,52.95
2017-10-28T01:13:35.284Z,52.28
2017-10-28T01:14:44.255Z,52.86
2017-10-28T01:15:53.237Z,52.86
2017-10-28T01:17:02.240Z,52.86
2017-10-28T01:18:11.248Z,53.05
2017-10-28T01:19:20.557Z,52.95
2017-10-28T01:20:29.859Z,52.86
2017-10-28T01:21:39.819Z,52.86
2017-10-28T01:22:48.796Z,52.95
2017-10-28T01:23:58.091Z,52.95
2017-10-28T01:25:07.402Z,52.95
2017-10-28T01:26:16.406Z,52.95
2017-10-28T01:27:25.056Z,53.05
2017-10-28T01:28:34.089Z,52.28
2017-10-28T01:29:43.069Z,52.95
2017-10-28T01:30:51.735Z,52.95
2017-10-28T01:32:00.719Z,52.86
2017-10-28T01:33:09.377Z,52.95
2017-10-28T01:34:18.028Z,52.76
2017-10-28T01:35:27.049Z,52.86
2017-10-28T01:36:36.026Z,52.95
2017-10-28T01:37:45.013Z,52.86
2017-10-28T01:38:54.345Z,52.86
2017-10-28T01:40:04.074Z,52.86
2017-10-28T01:41:13.439Z,52.86
2017-10-28T01:42:22.422Z,52.86
2017-10-28T01:43:31.408Z,52.86
2017-10-28T01:44:40.071Z,52.95
2017-10-28T01:45:48.726Z,52.37
2017-10-28T01:46:58.032Z,52.67
2017-10-28T01:48:07.664Z,52.86
2017-10-28T01:49:16.367Z,52.86
2017-10-28T01:50:25.682Z,52.67
2017-10-28T01:51:34.996Z,52.47
2017-10-28T01:52:43.655Z,52.76
2017-10-28T01:53:52.646Z,52.86
2017-10-28T01:55:02.300Z,52.28
2017-10-28T01:56:11.280Z,52.67
2017-10-28T01:57:20.735Z,52.64
2017-10-28T01:58:30.559Z,52.47
2017-10-28T01:59:39.882Z,52.37
2017-10-28T02:00:48.549Z,52.86
2017-10-28T02:01:57.857Z,52.76
2017-10-28T02:03:06.539Z,52.86
2017-10-28T02:04:15.514Z,52.47
2017-10-28T02:05:24.831Z,52.67
2017-10-28T02:06:33.512Z,52.76
2017-10-28T02:07:43.140Z,52.67
2017-10-28T02:08:52.447Z,52.67
2017-10-28T02:10:01.415Z,52.37
2017-10-28T02:11:10.076Z,52.95
2017-10-28T02:12:19.398Z,52.67
2017-10-28T02:13:28.074Z,52.37
2017-10-28T02:14:37.153Z,52.45
2017-10-28T02:15:47.103Z,52.37
2017-10-28T02:16:56.410Z,52.64
2017-10-28T02:18:05.726Z,52.37
2017-10-28T02:19:15.372Z,52.67
2017-10-28T02:20:24.463Z,52.67
2017-10-28T02:21:33.438Z,52.95
2017-10-28T02:22:42.426Z,52.76
2017-10-28T02:23:51.071Z,52.73
2017-10-28T02:24:59.738Z,52.37
2017-10-28T02:26:08.402Z,52.64
2017-10-28T02:27:17.044Z,52.57
2017-10-28T02:28:26.035Z,52.95
2017-10-28T02:29:34.755Z,52.47
2017-10-28T02:30:43.743Z,52.57
2017-10-28T02:31:52.718Z,52.86
2017-10-28T02:33:01.696Z,52.47
2017-10-28T02:34:11.357Z,52.57
2017-10-28T02:35:21.092Z,52.67
2017-10-28T02:36:29.748Z,52.47
2017-10-28T02:37:38.754Z,52.47
2017-10-28T02:38:47.438Z,52.55
2017-10-28T02:39:56.459Z,52.45
2017-10-28T02:41:05.145Z,52.55
2017-10-28T02:42:13.807Z,52.93
2017-10-28T02:43:22.797Z,52.64
2017-10-28T02:44:32.176Z,52.57
2017-10-28T02:45:40.833Z,52.57
2017-10-28T02:46:49.831Z,52.47
2017-10-28T02:47:58.859Z,52.45
2017-10-28T02:49:07.530Z,52.45
2017-10-28T02:50:16.860Z,52.57
2017-10-28T02:51:25.840Z,52.47
2017-10-28T02:52:35.149Z,52.47
2017-10-28T02:53:44.138Z,52.47
2017-10-28T02:54:53.130Z,52.47
2017-10-28T02:56:02.113Z,52.57
2017-10-28T02:57:11.130Z,52.55
2017-10-28T02:58:20.768Z,52.55
2017-10-28T02:59:30.401Z,52.45
2017-10-28T03:00:39.068Z,52.45
2017-10-28T03:01:48.725Z,52.47
2017-10-28T03:02:57.385Z,52.73
2017-10-28T03:04:06.364Z,52.55
2017-10-28T03:05:15.678Z,52.45
2017-10-28T03:06:25.736Z,52.55
2017-10-28T03:07:34.378Z,52.35
2017-10-28T03:08:43.029Z,52.35
2017-10-28T03:09:52.346Z,52.64
2017-10-28T03:11:01.683Z,52.64
2017-10-28T03:12:10.346Z,52.57
2017-10-28T03:13:19.338Z,52.47
2017-10-28T03:14:28.654Z,52.64
2017-10-28T03:15:38.300Z,52.55
2017-10-28T03:16:47.272Z,52.35
2017-10-28T03:17:56.358Z,52.45
2017-10-28T03:19:05.338Z,52.47
2017-10-28T03:20:15.307Z,52.55
2017-10-28T03:21:23.964Z,52.35
2017-10-28T03:22:32.631Z,52.64
2017-10-28T03:23:41.646Z,52.45
2017-10-28T03:24:50.311Z,52.73
2017-10-28T03:26:00.620Z,52.35
2017-10-28T03:27:09.633Z,52.45
2017-10-28T03:28:18.283Z,52.45
2017-10-28T03:29:27.594Z,52.37
2017-10-28T03:30:36.236Z,52.55
2017-10-28T03:31:45.213Z,52.73
2017-10-28T03:32:54.521Z,52.55
2017-10-28T03:34:03.175Z,52.57
2017-10-28T03:35:12.606Z,52.47
2017-10-28T03:36:21.604Z,52.55
2017-10-28T03:37:30.569Z,52.73
2017-10-28T03:38:39.238Z,52.55
2017-10-28T03:39:48.562Z,52.55
2017-10-28T03:40:57.898Z,52.76
2017-10-28T03:42:06.910Z,52.55
2017-10-28T03:43:15.896Z,52.55
2017-10-28T03:44:25.211Z,52.55
2017-10-28T03:45:33.858Z,52.73
2017-10-28T03:46:42.528Z,52.55
2017-10-28T03:47:51.536Z,52.57
2017-10-28T03:49:00.856Z,52.64
2017-10-28T03:50:09.501Z,52.67
2017-10-28T03:51:18.470Z,52.45
2017-10-28T03:52:27.819Z,52.64
2017-10-28T03:53:37.148Z,52.55
2017-10-28T03:54:45.804Z,52.64
2017-10-28T03:55:54.783Z,52.55
2017-10-28T03:57:03.431Z,52.55
2017-10-28T03:58:12.420Z,52.55
2017-10-28T03:59:21.401Z,52.64
2017-10-28T04:00:30.713Z,52.45
2017-10-28T04:01:40.376Z,52.55
2017-10-28T04:02:49.026Z,52.55
2017-10-28T04:03:58.108Z,52.64
2017-10-28T04:05:07.115Z,52.64
2017-10-28T04:06:16.758Z,52.55
2017-10-28T04:07:26.068Z,52.64
2017-10-28T04:08:35.036Z,52.64
2017-10-28T04:09:44.497Z,52.55
2017-10-28T04:10:53.475Z,52.45
2017-10-28T04:12:03.116Z,52.55
2017-10-28T04:13:12.422Z,52.64
2017-10-28T04:14:22.086Z,52.64
2017-10-28T04:15:30.841Z,52.73
2017-10-28T04:16:39.830Z,52.55
2017-10-28T04:17:49.148Z,52.45
2017-10-28T04:18:57.816Z,52.64
2017-10-28T04:20:06.805Z,52.73
2017-10-28T04:21:15.786Z,52.73
2017-10-28T04:22:25.097Z,52.73
2017-10-28T04:23:34.417Z,52.45
2017-10-28T04:24:43.724Z,52.45
2017-10-28T04:25:52.720Z,52.55
2017-10-28T04:27:02.032Z,52.73
2017-10-28T04:28:11.016Z,52.73
2017-10-28T04:29:19.994Z,52.73
2017-10-28T04:30:28.661Z,52.45
2017-10-28T04:31:37.661Z,52.73
2017-10-28T04:32:46.727Z,52.64
2017-10-28T04:33:56.051Z,52.64
2017-10-28T04:35:05.031Z,52.73
2017-10-28T04:36:14.363Z,52.64
2017-10-28T04:37:23.342Z,52.55
2017-10-28T04:38:32.327Z,52.73
2017-10-28T04:39:41.634Z,52.45
2017-10-28T04:40:50.290Z,52.64
2017-10-28T04:41:59.599Z,52.64
2017-10-28T04:43:09.256Z,52.55
2017-10-28T04:44:18.241Z,52.64
2017-10-28T04:45:26.900Z,52.73
2017-10-28T04:46:35.553Z,52.64
2017-10-28T04:47:44.573Z,52.45
2017-10-28T04:48:53.226Z,52.64
2017-10-28T04:50:02.339Z,52.55
2017-10-28T04:51:12.038Z,52.55
2017-10-28T04:52:21.032Z,52.45
2017-10-28T04:53:29.696Z,52.55
2017-10-28T04:54:39.051Z,52.45
2017-10-28T04:55:48.359Z,52.64
2017-10-28T04:56:58.003Z,52.64
2017-10-28T04:58:07.336Z,52.64
2017-10-28T04:59:16.325Z,52.45
2017-10-28T05:00:25.968Z,52.45
2017-10-28T05:01:35.280Z,52.45
2017-10-28T05:02:43.939Z,52.64
2017-10-28T05:03:53.250Z,52.64
2017-10-28T05:05:02.562Z,52.45
2017-10-28T05:06:11.542Z,52.73
2017-10-28T05:07:20.247Z,52.45
2017-10-28T05:08:29.882Z,52.45
2017-10-28T05:09:38.874Z,52.45
2017-10-28T05:10:48.198Z,52.45
2017-10-28T05:11:57.187Z,52.83
2017-10-28T05:13:06.604Z,52.64
2017-10-28T05:14:15.269Z,52.73
2017-10-28T05:15:24.289Z,52.64
2017-10-28T05:16:33.349Z,52.83
2017-10-28T05:17:41.978Z,52.64
2017-10-28T05:18:51.287Z,52.64
2017-10-28T05:20:00.916Z,52.45
2017-10-28T05:21:10.294Z,52.45
2017-10-28T05:22:19.259Z,52.73
2017-10-28T05:23:28.594Z,52.64
2017-10-28T05:24:37.588Z,52.55
2017-10-28T05:25:46.913Z,52.45
2017-10-28T05:26:55.902Z,52.45
2017-10-28T05:28:04.899Z,52.73
2017-10-28T05:29:15.007Z,52.45
2017-10-28T05:30:24.431Z,52.45
2017-10-28T05:31:33.090Z,52.45
2017-10-28T05:32:42.086Z,52.45
2017-10-28T05:33:51.391Z,52.45
2017-10-28T05:35:00.713Z,52.45
2017-10-28T05:36:10.021Z,52.83
2017-10-28T05:37:19.340Z,52.45
2017-10-28T05:38:28.017Z,52.83
2017-10-28T05:39:37.007Z,52.45
2017-10-28T05:40:47.176Z,52.64
2017-10-28T05:41:56.852Z,52.45
2017-10-28T05:43:05.584Z,52.64
2017-10-28T05:44:14.565Z,52.45
2017-10-28T05:45:23.949Z,52.45
2017-10-28T05:46:32.657Z,52.73
2017-10-28T05:47:41.634Z,52.64
2017-10-28T05:48:50.326Z,52.64
2017-10-28T05:50:00.035Z,52.64
2017-10-28T05:51:09.038Z,52.45
2017-10-28T05:52:17.709Z,52.64
2017-10-28T05:53:27.001Z,52.73
2017-10-28T05:54:36.312Z,52.83
2017-10-28T05:55:45.622Z,52.64
2017-10-28T05:56:54.611Z,52.64
2017-10-28T05:58:04.577Z,52.73
2017-10-28T05:59:13.651Z,52.73
2017-10-28T06:00:23.325Z,52.64
2017-10-28T06:01:32.309Z,52.73
2017-10-28T06:02:40.986Z,52.73
2017-10-28T06:03:49.973Z,52.73
2017-10-28T06:04:58.640Z,52.64
2017-10-28T06:06:07.607Z,52.83
2017-10-28T06:07:16.391Z,52.73
2017-10-28T06:08:25.331Z,52.64
2017-10-28T06:09:34.103Z,52.55
2017-10-28T06:10:43.515Z,52.73
2017-10-28T06:11:53.087Z,52.55
2017-10-28T06:13:02.506Z,52.55
2017-10-28T06:14:11.982Z,52.64
2017-10-28T06:15:20.823Z,52.83
2017-10-28T06:16:30.459Z,52.64
2017-10-28T06:17:39.784Z,52.83
2017-10-28T06:18:49.139Z,53.03
2017-10-28T06:19:58.073Z,52.83
2017-10-28T06:21:07.072Z,52.64
2017-10-28T06:22:15.831Z,53.03
2017-10-28T06:23:25.477Z,52.83
2017-10-28T06:24:35.115Z,53.03
2017-10-28T06:25:43.823Z,52.83
2017-10-28T06:26:53.148Z,52.55
2017-10-28T06:28:02.560Z,52.45
2017-10-28T06:29:11.859Z,52.45
2017-10-28T06:30:21.231Z,52.45
2017-10-28T06:31:30.537Z,52.45
2017-10-28T06:32:39.543Z,52.35
2017-10-28T06:33:48.960Z,52.35
2017-10-28T06:34:58.298Z,52.45
2017-10-28T06:36:08.093Z,52.45
2017-10-28T06:37:17.212Z,52.35
2017-10-28T06:38:26.610Z,52.35
2017-10-28T06:39:35.616Z,52.35
2017-10-28T06:40:44.606Z,52.55
2017-10-28T06:41:54.686Z,52.45
2017-10-28T06:43:03.418Z,52.25
2017-10-28T06:44:12.190Z,52.45
2017-10-28T06:45:21.278Z,52.55
2017-10-28T06:46:30.936Z,52.64
2017-10-28T06:47:40.192Z,52.45
2017-10-28T06:48:50.227Z,52.55
2017-10-28T06:50:00.319Z,52.64
2017-10-28T06:51:10.059Z,52.55
2017-10-28T06:52:18.894Z,52.64
2017-10-28T06:53:28.030Z,52.55
2017-10-28T06:54:37.019Z,52.55
2017-10-28T06:55:46.365Z,52.55
2017-10-28T06:56:55.358Z,52.55
2017-10-28T06:58:04.024Z,52.55
2017-10-28T06:59:13.662Z,52.64
2017-10-28T07:00:22.335Z,52.55
2017-10-28T07:01:31.364Z,52.45
2017-10-28T07:02:41.038Z,52.64
2017-10-28T07:03:50.049Z,52.73
2017-10-28T07:04:59.444Z,52.55
2017-10-28T07:06:09.895Z,52.64
2017-10-28T07:07:19.627Z,52.73
2017-10-28T07:08:28.622Z,52.64
2017-10-28T07:09:37.291Z,52.73
2017-10-28T07:10:47.001Z,52.55
2017-10-28T07:11:56.348Z,52.64
2017-10-28T07:13:05.866Z,52.25
2017-10-28T07:14:14.604Z,52.06
2017-10-28T07:15:23.634Z,52.06
2017-10-28T07:16:32.346Z,52.06
2017-10-28T07:17:41.098Z,52.16
2017-10-28T07:18:50.429Z,52.06
2017-10-28T07:19:59.493Z,52.25
2017-10-28T07:21:08.189Z,52.06
2017-10-28T07:22:17.198Z,51.87
2017-10-28T07:23:26.190Z,51.77
2017-10-28T07:24:35.598Z,52.06
2017-10-28T07:25:44.260Z,51.97
2017-10-28T07:26:53.614Z,52.25
2017-10-28T07:28:02.622Z,51.97
2017-10-28T07:29:11.920Z,51.97
2017-10-28T07:30:20.579Z,52.06
2017-10-28T07:31:29.245Z,51.97
2017-10-28T07:32:37.933Z,51.87
2017-10-28T07:33:46.629Z,51.58
2017-10-28T07:34:55.362Z,51.87
2017-10-28T07:36:04.371Z,52.06
2017-10-28T07:37:13.399Z,51.58
2017-10-28T07:38:22.403Z,51.87
2017-10-28T07:39:31.756Z,51.77
2017-10-28T07:40:40.602Z,51.97
2017-10-28T07:41:50.276Z,51.58
2017-10-28T07:42:58.940Z,51.48
2017-10-28T07:44:07.946Z,51.68
2017-10-28T07:45:17.291Z,51.48
2017-10-28T07:46:26.622Z,51.77
2017-10-28T07:47:35.330Z,51.77
2017-10-28T07:48:44.629Z,52.06
2017-10-28T07:49:53.279Z,51.68
2017-10-28T07:51:02.272Z,51.87
2017-10-28T07:52:11.594Z,51.87
2017-10-28T07:53:20.591Z,52.09
2017-10-28T07:54:29.561Z,51.89
2017-10-28T07:55:38.559Z,51.68
2017-10-28T07:56:47.270Z,51.68
2017-10-28T07:57:56.257Z,51.48
2017-10-28T07:59:05.261Z,51.58
2017-10-28T08:00:14.589Z,51.77
2017-10-28T08:01:24.027Z,51.58
2017-10-28T08:02:32.724Z,51.68
2017-10-28T08:03:41.759Z,51.68
2017-10-28T08:04:51.414Z,51.68
2017-10-28T08:06:00.743Z,51.68
2017-10-28T08:07:09.759Z,51.97
2017-10-28T08:08:18.744Z,51.68
2017-10-28T08:09:28.384Z,51.68
2017-10-28T08:10:37.446Z,51.99
2017-10-28T08:11:46.441Z,51.77
2017-10-28T08:12:56.154Z,51.77
2017-10-28T08:14:05.157Z,51.87
2017-10-28T08:15:14.569Z,51.77
2017-10-28T08:16:23.235Z,51.8
2017-10-28T08:17:31.894Z,51.8
2017-10-28T08:18:40.993Z,51.89
2017-10-28T08:19:50.746Z,51.7
2017-10-28T08:21:00.463Z,51.8
2017-10-28T08:22:09.399Z,51.8
2017-10-28T08:23:19.044Z,51.51
2017-10-28T08:24:28.143Z,51.7
2017-10-28T08:25:36.876Z,51.51
2017-10-28T08:26:45.547Z,51.51
2017-10-28T08:27:55.540Z,51.41
2017-10-28T08:29:04.917Z,51.41
2017-10-28T08:30:14.902Z,51.41
2017-10-28T08:31:23.596Z,51.32
2017-10-28T08:32:33.058Z,51.03
2017-10-28T08:33:42.420Z,51.51
2017-10-28T08:34:51.093Z,50.84
2017-10-28T08:36:00.084Z,51.12
2017-10-28T08:37:09.904Z,51.32
2017-10-28T08:38:19.552Z,51.22
2017-10-28T08:39:28.203Z,50.93
2017-10-28T08:40:37.867Z,51.03
2017-10-28T08:41:46.844Z,51.03
2017-10-28T08:42:56.162Z,51.03
2017-10-28T08:44:05.479Z,51.32
2017-10-28T08:45:14.929Z,51.32
2017-10-28T08:46:23.904Z,51.12
2017-10-28T08:47:33.607Z,51.32
2017-10-28T08:48:42.648Z,51.22
2017-10-28T08:49:51.976Z,51.03
2017-10-28T08:51:01.268Z,51.41
2017-10-28T08:52:10.268Z,51.12
2017-10-28T08:53:19.916Z,51.12
2017-10-28T08:54:28.981Z,51.12
2017-10-28T08:55:38.307Z,51.03
2017-10-28T08:56:46.972Z,50.93
2017-10-28T08:57:56.006Z,51.22
2017-10-28T08:59:04.674Z,51.22
2017-10-28T09:00:13.654Z,51.12
2017-10-28T09:01:23.312Z,51.12
2017-10-28T09:02:32.647Z,51.32
2017-10-28T09:03:41.657Z,51.22
2017-10-28T09:04:51.046Z,51.15
2017-10-28T09:06:00.701Z,51.12
2017-10-28T09:07:10.026Z,51.22
2017-10-28T09:08:20.566Z,51.12
2017-10-28T09:09:30.240Z,50.93
2017-10-28T09:10:39.676Z,51.03
2017-10-28T09:11:48.911Z,51.12
2017-10-28T09:12:58.346Z,50.93
2017-10-28T09:14:07.355Z,50.93
2017-10-28T09:15:16.007Z,51.03
2017-10-28T09:16:25.341Z,50.84
2017-10-28T09:17:34.360Z,50.74
2017-10-28T09:18:43.354Z,50.84
2017-10-28T09:19:52.365Z,50.74
2017-10-28T09:21:01.353Z,51.32
2017-10-28T09:22:10.673Z,50.84
2017-10-28T09:23:20.022Z,51.32
2017-10-28T09:24:29.339Z,50.93
2017-10-28T09:25:38.325Z,50.84
2017-10-28T09:26:47.654Z,50.93
2017-10-28T09:27:56.319Z,50.84
2017-10-28T09:29:05.616Z,50.84
2017-10-28T09:30:14.944Z,50.93
2017-10-28T09:31:23.923Z,50.84
2017-10-28T09:32:32.574Z,50.76
2017-10-28T09:33:42.947Z,51.32
2017-10-28T09:34:51.618Z,51.12
2017-10-28T09:36:00.298Z,51.32
2017-10-28T09:37:09.310Z,50.93
2017-10-28T09:38:18.648Z,50.93
2017-10-28T09:39:27.318Z,51.41
2017-10-28T09:40:35.979Z,51.32
2017-10-28T09:41:44.948Z,51.41
2017-10-28T09:42:54.270Z,51.22
2017-10-28T09:44:02.928Z,51.51
2017-10-28T09:45:12.278Z,51.44
2017-10-28T09:46:21.298Z,51.22
2017-10-28T09:47:30.312Z,51.51
2017-10-28T09:48:39.746Z,51.41
2017-10-28T09:49:48.477Z,51.32
2017-10-28T09:50:57.984Z,51.51
2017-10-28T09:52:06.991Z,51.41
2017-10-28T09:53:16.329Z,51.41
2017-10-28T09:54:25.484Z,51.22
2017-10-28T09:55:34.521Z,51.22
2017-10-28T09:56:43.840Z,51.22
2017-10-28T09:57:52.599Z,51.41
2017-10-28T09:59:01.923Z,51.41
2017-10-28T10:00:11.231Z,51.41
2017-10-28T10:01:20.569Z,51.41
2017-10-28T10:02:29.912Z,51.41
2017-10-28T10:03:38.591Z,51.41
2017-10-28T10:04:47.916Z,51.22
2017-10-28T10:05:56.932Z,51.32
2017-10-28T10:07:06.720Z,51.41
2017-10-28T10:08:16.784Z,51.32
2017-10-28T10:09:25.854Z,51.32
2017-10-28T10:10:35.542Z,51.32
2017-10-28T10:11:44.750Z,51.61
2017-10-28T10:12:53.911Z,51.61
2017-10-28T10:14:04.064Z,51.32
2017-10-28T10:15:13.570Z,51.41
2017-10-28T10:16:22.932Z,51.89
2017-10-28T10:17:33.161Z,51.89
2017-10-28T10:18:42.327Z,51.89
2017-10-28T10:19:51.776Z,51.89
2017-10-28T10:21:01.178Z,51.8
2017-10-28T10:22:10.076Z,51.99
2017-10-28T10:23:19.290Z,51.8
2017-10-28T10:24:28.680Z,51.99
2017-10-28T10:25:38.594Z,51.8
2017-10-28T10:26:48.452Z,51.61
2017-10-28T10:27:57.609Z,51.99
2017-10-28T10:29:07.579Z,51.8
2017-10-28T10:30:17.434Z,51.89
2017-10-28T10:31:27.004Z,51.51
2017-10-28T10:32:35.884Z,51.89
2017-10-28T10:33:45.364Z,51.7
2017-10-28T10:34:55.174Z,51.89
2017-10-28T10:36:03.890Z,51.8
2017-10-28T10:37:13.477Z,51.8
2017-10-28T10:38:22.499Z,51.7
2017-10-28T10:39:31.387Z,51.7
2017-10-28T10:40:40.354Z,51.7
2017-10-28T10:41:50.605Z,51.89
2017-10-28T10:43:01.625Z,51.7
2017-10-28T10:44:11.176Z,51.89
2017-10-28T10:45:20.047Z,51.8
2017-10-28T10:46:29.591Z,51.8
2017-10-28T10:47:38.736Z,51.51
2017-10-28T10:48:48.195Z,51.8
2017-10-28T10:49:57.215Z,51.8
2017-10-28T10:51:06.036Z,51.8
2017-10-28T10:52:15.062Z,51.7
2017-10-28T10:53:24.791Z,51.8
2017-10-28T10:54:34.159Z,51.8
2017-10-28T10:55:43.501Z,51.61
2017-10-28T10:56:52.737Z,51.99
2017-10-28T10:58:02.606Z,51.61
2017-10-28T10:59:11.332Z,51.89
2017-10-28T11:00:21.597Z,51.8
2017-10-28T11:01:30.495Z,51.89
2017-10-28T11:02:39.970Z,51.8
2017-10-28T11:03:50.884Z,51.8
2017-10-28T11:04:59.951Z,51.99
2017-10-28T11:06:11.963Z,51.61
2017-10-28T11:07:21.286Z,51.89
2017-10-28T11:08:30.330Z,51.8
2017-10-28T11:09:39.510Z,51.8
2017-10-28T11:10:48.820Z,51.89
2017-10-28T11:11:58.051Z,51.89
2017-10-28T11:13:07.063Z,51.7
2017-10-28T11:14:16.287Z,51.51
2017-10-28T11:15:26.286Z,51.61
2017-10-28T11:16:35.543Z,51.7
2017-10-28T11:17:44.930Z,51.41
2017-10-28T11:18:53.898Z,51.61
2017-10-28T11:20:02.628Z,51.22
2017-10-28T11:21:11.711Z,51.32
2017-10-28T11:22:21.711Z,51.32
2017-10-28T11:23:30.787Z,51.41
2017-10-28T11:24:39.620Z,51.51
2017-10-28T11:25:48.787Z,51.32
2017-10-28T11:26:57.711Z,51.41
2017-10-28T11:28:08.123Z,51.41
2017-10-28T11:29:16.823Z,51.41
2017-10-28T11:30:25.691Z,51.51
2017-10-28T11:31:34.769Z,51.51
2017-10-28T11:32:44.161Z,51.61
2017-10-28T11:33:53.301Z,51.12
2017-10-28T11:35:02.105Z,51.7
2017-10-28T11:36:11.677Z,51.99
2017-10-28T11:37:21.601Z,51.89
2017-10-28T11:38:30.991Z,51.89
2017-10-28T11:39:39.829Z,51.51
2017-10-28T11:40:48.979Z,51.41
2017-10-28T11:41:58.530Z,51.7
2017-10-28T11:43:07.439Z,51.99
2017-10-28T11:44:16.802Z,51.89
2017-10-28T11:45:25.904Z,51.89
2017-10-28T11:46:35.210Z,51.89
2017-10-28T11:47:44.840Z,51.8
2017-10-28T11:48:53.676Z,51.61
2017-10-28T11:50:02.739Z,51.61
2017-10-28T11:51:11.660Z,51.61
2017-10-28T11:52:20.951Z,51.8
2017-10-28T11:53:30.616Z,51.99
2017-10-28T11:54:39.552Z,51.7
2017-10-28T11:55:49.146Z,51.61
2017-10-28T11:56:58.404Z,51.8
2017-10-28T11:58:08.011Z,51.7
2017-10-28T11:59:18.142Z,51.8
2017-10-28T12:00:28.455Z,51.89
2017-10-28T12:01:38.805Z,51.8
2017-10-28T12:02:48.044Z,51.61
2017-10-28T12:03:57.371Z,51.8
2017-10-28T12:05:06.860Z,51.61
2017-10-28T12:06:16.176Z,51.89
2017-10-28T12:07:25.325Z,51.99
2017-10-28T12:08:35.037Z,51.89
2017-10-28T12:09:44.185Z,51.7
2017-10-28T12:10:53.326Z,51.99
2017-10-28T12:12:02.940Z,51.7
2017-10-28T12:13:12.242Z,51.7
2017-10-28T12:14:22.571Z,51.99
2017-10-28T12:15:32.885Z,51.7
2017-10-28T12:16:42.221Z,51.89
2017-10-28T12:17:51.177Z,51.7
2017-10-28T12:19:00.384Z,51.61
2017-10-28T12:20:09.907Z,51.89
2017-10-28T12:21:19.225Z,51.89
2017-10-28T12:22:28.174Z,51.8
2017-10-28T12:23:38.420Z,51.8
2017-10-28T12:24:49.047Z,51.7
2017-10-28T12:25:58.666Z,51.99
2017-10-28T12:27:08.046Z,51.8
2017-10-28T12:28:18.002Z,51.8
2017-10-28T12:29:28.099Z,51.89
2017-10-28T12:30:38.086Z,51.99
2017-10-28T12:31:47.578Z,51.8
2017-10-28T12:32:57.248Z,51.7
2017-10-28T12:34:06.481Z,51.7
2017-10-28T12:35:16.116Z,51.89
2017-10-28T12:36:25.489Z,51.89
2017-10-28T12:37:35.173Z,51.7
2017-10-28T12:38:44.555Z,51.89
2017-10-28T12:39:54.247Z,51.8
2017-10-28T12:41:04.029Z,51.7
2017-10-28T12:42:13.148Z,51.7
2017-10-28T12:43:23.132Z,51.7
2017-10-28T12:44:34.302Z,51.89
2017-10-28T12:45:44.616Z,51.8
2017-10-28T12:46:55.099Z,51.89
2017-10-28T12:48:05.815Z,51.7
2017-10-28T12:49:14.836Z,51.8
2017-10-28T12:50:24.078Z,51.7
2017-10-28T12:51:33.772Z,51.99
2017-10-28T12:52:42.832Z,51.8
2017-10-28T12:53:52.262Z,51.7
2017-10-28T12:55:01.718Z,51.89
2017-10-28T12:56:11.798Z,51.7
2017-10-28T12:57:21.282Z,51.7
2017-10-28T12:58:30.298Z,51.7
2017-10-28T12:59:39.437Z,51.89
2017-10-28T13:00:48.107Z,51.7
2017-10-28T13:01:57.482Z,51.7
2017-10-28T13:03:06.719Z,51.61
2017-10-28T13:04:15.565Z,51.61
2017-10-28T13:05:24.795Z,51.7
2017-10-28T13:06:33.851Z,51.7
2017-10-28T13:07:42.852Z,51.7
2017-10-28T13:08:51.877Z,51.89
2017-10-28T13:10:00.871Z,51.8
2017-10-28T13:11:10.760Z,51.8
2017-10-28T13:12:19.983Z,51.8
2017-10-28T13:13:28.987Z,51.8
2017-10-28T13:14:38.039Z,51.8
2017-10-28T13:15:46.929Z,51.7
2017-10-28T13:16:56.735Z,51.8
2017-10-28T13:18:05.839Z,51.7
2017-10-28T13:19:15.324Z,51.8
2017-10-28T13:20:25.212Z,51.8
2017-10-28T13:21:34.254Z,51.99
2017-10-28T13:22:42.935Z,51.7
2017-10-28T13:23:52.442Z,51.8
2017-10-28T13:25:01.617Z,51.8
2017-10-28T13:26:11.001Z,51.8
2017-10-28T13:27:20.359Z,51.8
2017-10-28T13:28:29.740Z,51.7
2017-10-28T13:29:39.076Z,51.8
2017-10-28T13:30:47.766Z,51.8
2017-10-28T13:31:56.447Z,51.8
2017-10-28T13:33:05.436Z,51.61
2017-10-28T13:34:14.444Z,51.61
2017-10-28T13:35:23.805Z,51.61
2017-10-28T13:36:32.575Z,51.8
2017-10-28T13:37:41.264Z,51.89
2017-10-28T13:38:50.070Z,51.8
2017-10-28T13:39:59.071Z,51.8
2017-10-28T13:41:08.174Z,51.89
2017-10-28T13:42:17.231Z,51.8
2017-10-28T13:43:26.776Z,51.8
2017-10-28T13:44:35.858Z,51.8
2017-10-28T13:45:45.037Z,51.8
2017-10-28T13:46:54.214Z,51.7
2017-10-28T13:48:03.705Z,51.8
2017-10-28T13:49:13.465Z,51.61
2017-10-28T13:50:22.356Z,51.61
2017-10-28T13:51:31.476Z,51.8
2017-10-28T13:52:40.622Z,51.8
2017-10-28T13:53:49.415Z,51.8
2017-10-28T13:54:58.436Z,51.7
2017-10-28T13:56:07.430Z,51.7
2017-10-28T13:57:16.465Z,51.7
2017-10-28T13:58:25.161Z,51.89
2017-10-28T13:59:34.171Z,51.8
2017-10-28T14:00:43.833Z,51.8
2017-10-28T14:01:52.603Z,51.99
2017-10-28T14:03:01.952Z,51.89
2017-10-28T14:04:10.655Z,51.99
2017-10-28T14:05:19.999Z,51.89
2017-10-28T14:06:29.370Z,51.7
2017-10-28T14:07:38.024Z,51.89
2017-10-28T14:08:47.433Z,51.7
2017-10-28T14:09:56.512Z,51.7
2017-10-28T14:11:05.514Z,51.8
2017-10-28T14:12:14.842Z,51.8
2017-10-28T14:13:23.544Z,51.7
2017-10-28T14:14:33.284Z,51.51
2017-10-28T14:15:42.622Z,51.7
2017-10-28T14:16:51.310Z,51.51
2017-10-28T14:18:00.358Z,51.51
2017-10-28T14:19:09.770Z,51.61
2017-10-28T14:20:19.135Z,51.61
2017-10-28T14:21:28.480Z,51.61
2017-10-28T14:22:37.804Z,51.61
2017-10-28T14:23:46.468Z,51.61
2017-10-28T14:24:55.473Z,51.61
2017-10-28T14:26:04.505Z,51.61
2017-10-28T14:27:13.539Z,51.61
2017-10-28T14:28:22.862Z,51.61
2017-10-28T14:29:31.879Z,51.7
2017-10-28T14:30:40.897Z,51.51
2017-10-28T14:31:50.271Z,51.51
2017-10-28T14:32:59.270Z,51.51
2017-10-28T14:34:08.290Z,51.51
2017-10-28T14:35:17.361Z,51.51
2017-10-28T14:36:26.694Z,51.51
2017-10-28T14:37:35.736Z,51.51
2017-10-28T14:38:44.852Z,51.61
2017-10-28T14:39:54.790Z,51.8
2017-10-28T14:41:04.058Z,51.61
2017-10-28T14:42:13.310Z,51.89
2017-10-28T14:43:23.636Z,51.89
2017-10-28T14:44:33.435Z,51.8
2017-10-28T14:45:42.712Z,51.89
2017-10-28T14:46:52.498Z,51.7
2017-10-28T14:48:01.530Z,51.61
2017-10-28T14:49:11.491Z,51.7
2017-10-28T14:50:21.214Z,51.8
2017-10-28T14:51:30.297Z,51.8
2017-10-28T14:52:39.647Z,51.89
2017-10-28T14:53:48.358Z,51.7
2017-10-28T14:54:57.764Z,51.99
2017-10-28T14:56:06.623Z,52.09